Flight Track Log - Related Links

Times and Time Zones

All times are in EDT time to prevent confusion due to time zone crossing. See the N65CW flight status page for this flight to view local times or setup timezone preferences in your user account.

Time Position Orientation Groundspeed Altitude Reporting Facility
EDT Latitude Longitude Course Direction KTS MPH feet Rate Location/Type
Wed 05:39:17 PM 30.6556 -87.9897 30° Northeast 114 131 2,600  Level Houston Center
Wed 05:40:19 PM 30.6847 -87.9739 25° Northeast 117 135 3,400 726 Climbing Houston Center
Wed 05:41:21 PM 30.7211 -87.9578 21° North 117 135 4,100 629 Climbing Houston Center
Wed 05:42:23 PM 30.7469 -87.9306 42° Northeast 124 143 4,700 339 Climbing Houston Center
Wed 05:43:00 PM 30.7950 -87.8522 34° Northeast  Level Estimated
Wed 05:43:25 PM 30.7775 -87.9083 32° Northeast 126 145 4,800  Level Houston Center
Wed 05:44:00 PM 30.8311 -87.8276 30° Northeast  Level FlightAware Approximate
Wed 05:44:27 PM 30.8119 -87.8811 34° Northeast 137 158 4,800  Level Houston Center
Wed 05:45:30 PM 30.8469 -87.8547 33° Northeast 144 166 4,800 144 Level Houston Center
Wed 05:46:32 PM 30.8875 -87.8236 33° Northeast 146 168 5,100 387 Climbing Houston Center
Wed 05:47:34 PM 30.9178 -87.8000 34° Northeast 140 161 5,600 484 Climbing Houston Center
Wed 05:48:36 PM 30.9469 -87.7775 33° Northeast 133 153 6,100 435 Climbing Houston Center
Wed 05:49:38 PM 30.9769 -87.7544 33° Northeast 130 150 6,500 435 Climbing Houston Center
Wed 05:50:40 PM 31.0064 -87.7322 33° Northeast 129 148 7,000 194 Climbing Houston Center
Wed 05:51:42 PM 31.0453 -87.6975 37° Northeast 138 159 6,900 -48 Descending Houston Center
Wed 05:52:44 PM 31.0808 -87.6669 36° Northeast 150 173 6,900  Level Houston Center
Wed 05:53:46 PM 31.1169 -87.6381 34° Northeast 155 178 6,900  Level Houston Center
Wed 05:54:49 PM 31.1528 -87.6086 35° Northeast 157 181 6,900  Level Houston Center
Wed 05:55:51 PM 31.1889 -87.5781 36° Northeast 159 183 6,900  Level Houston Center
Wed 05:56:53 PM 31.2253 -87.5483 35° Northeast 159 183 6,900  Level Houston Center
Wed 05:57:55 PM 31.2683 -87.5111 36° Northeast 160 184 6,900  Level Houston Center
Wed 05:58:57 PM 31.3047 -87.4817 35° Northeast 160 184 6,900  Level Houston Center
Wed 05:59:59 PM 31.3406 -87.4528 35° Northeast 158 182 6,900  Level Houston Center
Wed 06:01:01 PM 31.3767 -87.4231 35° Northeast 158 182 6,900  Level Houston Center
Wed 06:02:03 PM 31.4131 -87.3936 35° Northeast 158 182 6,900  Level Houston Center
Wed 06:03:05 PM 31.4572 -87.3556 36° Northeast 162 186 6,900  Level Houston Center
Wed 06:04:07 PM 31.4864 -87.3156 49° Northeast 164 189 6,900  Level Houston Center
Wed 06:05:09 PM 31.5092 -87.2700 60° Northeast 163 188 6,900  Level Houston Center
Wed 06:06:12 PM 31.5361 -87.2267 54° Northeast 163 188 6,900  Level Houston Center
Wed 06:07:14 PM 31.5631 -87.1839 54° Northeast 163 188 6,900  Level Houston Center
Wed 06:08:16 PM 31.5906 -87.1408 53° Northeast 164 189 6,900  Level Houston Center
Wed 06:09:43 PM 31.6342 -87.0756 52° Northeast 159 183 6,900  Level Atlanta Center
Wed 06:10:43 PM 31.6603 -87.0300 56° Northeast 159 183 6,900  Level Atlanta Center
Wed 06:11:43 PM 31.6822 -86.9892 58° Northeast 159 183 6,900  Level Atlanta Center
Wed 06:12:43 PM 31.7103 -86.9461 53° Northeast 164 189 6,900  Level Atlanta Center
Wed 06:13:43 PM 31.7344 -86.9031 57° Northeast 164 189 6,900  Level Atlanta Center
Wed 06:14:43 PM 31.7603 -86.8600 55° Northeast 164 189 6,900  Level Atlanta Center
Wed 06:15:43 PM 31.7883 -86.8169 53° Northeast 164 189 6,900  Level Atlanta Center
Wed 06:16:43 PM 31.8144 -86.7711 56° Northeast 164 189 6,900  Level Atlanta Center
Wed 06:17:43 PM 31.8406 -86.7306 53° Northeast 164 189 6,900  Level Atlanta Center
Wed 06:18:43 PM 31.8664 -86.6872 55° Northeast 164 189 6,900  Level Atlanta Center
Wed 06:19:43 PM 31.8947 -86.6392 55° Northeast 164 189 6,900  Level Atlanta Center
Wed 06:20:43 PM 31.9206 -86.5958 55° Northeast 164 189 6,900  Level Atlanta Center
Wed 06:21:43 PM 31.9486 -86.5525 53° Northeast 164 189 6,900  Level Atlanta Center
Wed 06:22:43 PM 31.9725 -86.5067 58° Northeast 164 189 6,900  Level Atlanta Center
Wed 06:23:43 PM 31.9983 -86.4633 55° Northeast 164 189 6,900 -171 Level Atlanta Center
Wed 06:25:00 PM 32.0288 -86.4113 55° Northeast  Level FlightAware Approximate
Wed 06:32:00 PM 32.1944 -86.1270 55° Northeast  Level FlightAware Approximate
Wed 06:33:00 PM 32.2180 -86.0863 56° Northeast  Level FlightAware Approximate
Wed 06:34:00 PM 32.2416 -86.0456 56° Northeast  Level FlightAware Approximate
Wed 06:34:23 PM 32.3000 -85.9667 56° Northeast 169 194 4,900  Level Atlanta TRACON
Wed 06:35:00 PM 32.2652 -86.0048 56° Northeast  Level FlightAware Approximate
Wed 06:35:23 PM 32.3167 -85.9333 59° Northeast 160 184 4,900  Level Atlanta TRACON
Wed 06:36:00 PM 32.2887 -85.9641 56° Northeast  Level FlightAware Approximate
Wed 06:36:17 PM 32.3500 -85.8833 52° Northeast 160 184 4,900  Level Atlanta TRACON
Wed 06:37:00 PM 32.3123 -85.9233 56° Northeast  Level FlightAware Approximate
Wed 06:37:17 PM 32.3667 -85.8500 59° Northeast 159 183 4,900  Level Atlanta TRACON
Wed 06:38:00 PM 32.3358 -85.8824 56° Northeast  Level FlightAware Approximate
Wed 06:38:23 PM 32.4000 -85.8000 52° Northeast 156 180 4,900  Level Atlanta TRACON
Wed 06:39:00 PM 32.3594 -85.8416 56° Northeast  Level FlightAware Approximate
Wed 06:39:23 PM 32.4167 -85.7667 59° Northeast 158 182 4,900  Level Atlanta TRACON
Wed 06:40:23 PM 32.4500 -85.7167 52° Northeast 159 183 4,700 -200 Descending Atlanta TRACON

Login

Don't have an account? Register now (free) for customized features, flight alerts, and more!